Woodbine, KS

7:42 PM CDT on April 24, 2015 (GMT -0500)
A.D. Olp Trucking Co | | Change Station
CLOSE
Current Station
Personal Weather Station
Location: Abilene, KS
Elevation: 1146 ft
Nearby Weather Stations
Active Advisory: Tornado Watch Active Notice: Public Information Statement

Elev 1146 ft 38.90 °N, 97.22 °W | Updated 1 second ago

Mostly Cloudy
Mostly Cloudy
71.7 °F
Feels Like 74 °F
N
9.0
Wind Variable Wind from SE
Gusts 20.0 mph

Today
High -- | Low -- °F
--% Chance of Precip.
Yesterday
High -- | Low -- °F
Precip. -- in
6:39 AM 8:13 PM
Waxing Crescent, 40% visible
Pressure 29.46 in
Visibility 10.0 miles
Clouds Scattered Clouds 2500 ft
Mostly Cloudy 3300 ft
Overcast 4700 ft
Heat Index 74 °F
Dew Point 61 °F
Humidity 70%
Rainfall 0.00 in
Snow Depth Not available.
UV 0 out of 12
Pollen 10.10 out of 12
Air Quality Not available.
Flu Activity Sporadic
SPECI KFRI 250033Z AUTO 06009KT 10SM SCT025 BKN033 OVC047 18/15 A2946 RMK AO2 PRESFR

More Conditions Fewer Conditions

Pressure 29.46 in
Visibility 10.0 miles
Clouds Scattered Clouds 2500 ft
Mostly Cloudy 3300 ft
Overcast 4700 ft
Heat Index 74 °F
Dew Point 61 °F
Humidity 70%
Rainfall 0.00 in
Snow Depth Not available.
UV 0 out of 12
Pollen 10.10 out of 12
Air Quality Not available.
Flu Activity Sporadic
SPECI KFRI 250033Z AUTO 06009KT 10SM SCT025 BKN033 OVC047 18/15 A2946 RMK AO2 PRESFR

More Conditions Fewer Conditions

There is an enhanced risk of severe weather for parts of Texas, Louisiana, southern Arkansas, and Kansas. A slight risk of severe weather encompasses a wide area of the Plains and Lower Mississippi Valley as well. This means severe thunderstorms will be capable of producing strong wind, large hail, heavy rain, and the possibility of tornadoes into the evening.

10-Day Weather Forecast

Almanac

Astronomy

Apr. 24, 2015 Rise Set
Actual Time
Civil Twilight
Nautical Twilight
Astronomical Twilight
Moon
Length of Visible Light
Length of Day
Tomorrow will be .
, % of the Moon is Illuminated

Today's Extremes

State Highs State Lows

Community

WunderPhotos

Upload Photos

1,816,526 photos uploaded!

WunderBlogs® & News

Nearby

Air Quality

  Air Quality AQ Index Pollutant
Not available.

Snow Depth

Station Depth Elevation

Earthquake Activity

City Distance Mag. Time & Date
Minimum magnitude displayed is 2.5.

Coastal Water Temperatures

Place Temperature

Stations

Nearby Weather Stations

Station Location Temp. Windchill Dew Point Humidity Wind Precip. Elev Updated Type
                   
Tornado Watch
Statement as of 6:43 PM CDT on April 24, 2015

Tornado Watch 102 remains in effect until 1100 PM CDT for the
following locations


KS
. Kansas counties included are

Barber Barton Clay
cloud Decatur Dickinson
Ellis Ellsworth Gove
Graham Harper Harvey
Jewell Kingman Lincoln
Logan McPherson Marion
Mitchell Ness Norton
Osborne Ottawa Pawnee
Phillips Pratt Rawlins
Reno Rice Rooks
rush Russell Saline
Sedgwick Sheridan Sherman
Smith Stafford Sumner
Thomas Trego Wallace